sensor_id;sensor_type;location;lat;lon;timestamp;pressure;altitude;pressure_sealevel;temperature;humidity
71966;BME280;59836;52.132;5.442;2023-04-08T00:02:06;102348.41;;;7.75;100.00
71966;BME280;59836;52.132;5.442;2023-04-08T00:04:33;102341.56;;;7.72;100.00
71966;BME280;59836;52.132;5.442;2023-04-08T00:06:59;102341.34;;;7.74;100.00
71966;BME280;59836;52.132;5.442;2023-04-08T00:09:26;102342.41;;;7.73;100.00
71966;BME280;59836;52.132;5.442;2023-04-08T00:11:52;102348.22;;;7.70;100.00
71966;BME280;59836;52.132;5.442;2023-04-08T00:14:19;102345.72;;;7.68;99.98
71966;BME280;59836;52.132;5.442;2023-04-08T00:16:45;102348.66;;;7.66;100.00
71966;BME280;59836;52.132;5.442;2023-04-08T00:19:12;102349.06;;;7.63;99.67
71966;BME280;59836;52.132;5.442;2023-04-08T00:21:38;102349.06;;;7.63;100.00
71966;BME280;59836;52.132;5.442;2023-04-08T00:24:05;102344.72;;;7.62;100.00
71966;BME280;59836;52.132;5.442;2023-04-08T00:26:32;102347.59;;;7.61;100.00
71966;BME280;59836;52.132;5.442;2023-04-08T00:28:58;102351.16;;;7.61;100.00
71966;BME280;59836;52.132;5.442;2023-04-08T00:31:25;102344.09;;;7.60;100.00
71966;BME280;59836;52.132;5.442;2023-04-08T00:33:52;102343.88;;;7.62;100.00
71966;BME280;59836;52.132;5.442;2023-04-08T00:36:19;102347.41;;;7.62;100.00
71966;BME280;59836;52.132;5.442;2023-04-08T00:38:45;102356.56;;;7.61;100.00
71966;BME280;59836;52.132;5.442;2023-04-08T00:41:11;102356.56;;;7.61;100.00
71966;BME280;59836;52.132;5.442;2023-04-08T00:43:39;102355.94;;;7.59;100.00
71966;BME280;59836;52.132;5.442;2023-04-08T00:46:05;102354.47;;;7.57;100.00
71966;BME280;59836;52.132;5.442;2023-04-08T00:48:32;102359.47;;;7.53;100.00
71966;BME280;59836;52.132;5.442;2023-04-08T00:50:59;102360.53;;;7.52;100.00
71966;BME280;59836;52.132;5.442;2023-04-08T00:53:26;102362.19;;;7.53;100.00
71966;BME280;59836;52.132;5.442;2023-04-08T00:55:52;102359.91;;;7.50;99.96
71966;BME280;59836;52.132;5.442;2023-04-08T00:58:18;102363.66;;;7.49;100.00
71966;BME280;59836;52.132;5.442;2023-04-08T01:01:21;102366.97;;;7.51;99.92
71966;BME280;59836;52.132;5.442;2023-04-08T01:06:51;102373.81;;;7.47;100.00
71966;BME280;59836;52.132;5.442;2023-04-08T01:09:24;102372.16;;;7.46;99.95
71966;BME280;59836;52.132;5.442;2023-04-08T01:11:54;102366.56;;;7.41;100.00
71966;BME280;59836;52.132;5.442;2023-04-08T01:14:25;102375.69;;;7.39;99.88
71966;BME280;59836;52.132;5.442;2023-04-08T01:16:54;102372.38;;;7.37;99.92
71966;BME280;59836;52.132;5.442;2023-04-08T01:19:27;102378.44;;;7.33;99.62
71966;BME280;59836;52.132;5.442;2023-04-08T01:22:01;102373.63;;;7.28;99.70
71966;BME280;59836;52.132;5.442;2023-04-08T01:24:32;102380.69;;;7.29;100.00
71966;BME280;59836;52.132;5.442;2023-04-08T01:27:02;102369.91;;;7.29;99.89
71966;BME280;59836;52.132;5.442;2023-04-08T01:29:29;102369.28;;;7.27;100.00
71966;BME280;59836;52.132;5.442;2023-04-08T01:31:57;102371.38;;;7.12;99.65
71966;BME280;59836;52.132;5.442;2023-04-08T01:34:24;102375.31;;;7.09;100.00
71966;BME280;59836;52.132;5.442;2023-04-08T01:36:52;102377.38;;;7.14;100.00
71966;BME280;59836;52.132;5.442;2023-04-08T01:39:21;102372.59;;;7.16;100.00
71966;BME280;59836;52.132;5.442;2023-04-08T01:41:49;102371.38;;;7.18;100.00
71966;BME280;59836;52.132;5.442;2023-04-08T01:44:17;102373.84;;;7.20;100.00
71966;BME280;59836;52.132;5.442;2023-04-08T01:46:46;102373.03;;;7.19;100.00
71966;BME280;59836;52.132;5.442;2023-04-08T01:49:14;102378.22;;;7.21;100.00
71966;BME280;59836;52.132;5.442;2023-04-08T01:51:42;102378.22;;;7.21;100.00
71966;BME280;59836;52.132;5.442;2023-04-08T01:54:09;102379.06;;;7.21;100.00
71966;BME280;59836;52.132;5.442;2023-04-08T01:56:38;102386.53;;;7.19;100.00
71966;BME280;59836;52.132;5.442;2023-04-08T01:59:14;102384.03;;;7.18;100.00
71966;BME280;59836;52.132;5.442;2023-04-08T02:01:43;102380.69;;;7.16;100.00
71966;BME280;59836;52.132;5.442;2023-04-08T02:04:11;102384.25;;;7.16;100.00
71966;BME280;59836;52.132;5.442;2023-04-08T02:06:38;102381.97;;;7.13;100.00
71966;BME280;59836;52.132;5.442;2023-04-08T02:09:05;102384.66;;;7.13;100.00
71966;BME280;59836;52.132;5.442;2023-04-08T02:11:33;102380.31;;;7.12;100.00
71966;BME280;59836;52.132;5.442;2023-04-08T02:13:59;102377.38;;;7.14;100.00
71966;BME280;59836;52.132;5.442;2023-04-08T02:16:52;102379.25;;;7.13;100.00
71966;BME280;59836;52.132;5.442;2023-04-08T02:19:24;102381.13;;;7.13;100.00
71966;BME280;59836;52.132;5.442;2023-04-08T02:21:56;102379.25;;;7.13;100.00
71966;BME280;59836;52.132;5.442;2023-04-08T02:24:24;102383.81;;;7.13;100.00
71966;BME280;59836;52.132;5.442;2023-04-08T02:26:53;102389.44;;;7.11;100.00
71966;BME280;59836;52.132;5.442;2023-04-08T02:29:21;102387.78;;;7.10;100.00
71966;BME280;59836;52.132;5.442;2023-04-08T02:31:49;102386.94;;;7.09;100.00
71966;BME280;59836;52.132;5.442;2023-04-08T02:34:16;102379.06;;;7.08;100.00
71966;BME280;59836;52.132;5.442;2023-04-08T02:36:44;102389.84;;;7.08;100.00
71966;BME280;59836;52.132;5.442;2023-04-08T02:39:12;102383.59;;;7.07;100.00
71966;BME280;59836;52.132;5.442;2023-04-08T02:41:39;102389.41;;;7.04;100.00
71966;BME280;59836;52.132;5.442;2023-04-08T02:44:05;102396.06;;;7.02;100.00
71966;BME280;59836;52.132;5.442;2023-04-08T02:46:31;102394.59;;;6.99;99.87
71966;BME280;59836;52.132;5.442;2023-04-08T02:48:58;102397.72;;;6.96;99.79
71966;BME280;59836;52.132;5.442;2023-04-08T02:51:24;102390.03;;;6.93;99.82
71966;BME280;59836;52.132;5.442;2023-04-08T02:53:51;102396.69;;;6.90;99.72
71966;BME280;59836;52.132;5.442;2023-04-08T02:56:18;102402.28;;;6.89;99.84
71966;BME280;59836;52.132;5.442;2023-04-08T02:58:44;102410.56;;;6.87;99.86
71966;BME280;59836;52.132;5.442;2023-04-08T03:01:11;102407.06;;;6.87;100.00
71966;BME280;59836;52.132;5.442;2023-04-08T03:03:37;102413.50;;;6.86;99.66
71966;BME280;59836;52.132;5.442;2023-04-08T03:06:04;102409.75;;;6.87;99.73
71966;BME280;59836;52.132;5.442;2023-04-08T03:08:31;102404.38;;;6.87;99.61
71966;BME280;59836;52.132;5.442;2023-04-08T03:10:58;102405.41;;;6.86;99.94
71966;BME280;59836;52.132;5.442;2023-04-08T03:13:25;102411.84;;;6.85;99.52
71966;BME280;59836;52.132;5.442;2023-04-08T03:15:51;102414.72;;;6.83;99.46
71966;BME280;59836;52.132;5.442;2023-04-08T03:18:18;102414.31;;;6.79;99.79
71966;BME280;59836;52.132;5.442;2023-04-08T03:20:44;102412.66;;;6.78;99.48
71966;BME280;59836;52.132;5.442;2023-04-08T03:23:11;102418.06;;;6.78;99.42
71966;BME280;59836;52.132;5.442;2023-04-08T03:25:37;102413.88;;;6.76;99.28
71966;BME280;59836;52.132;5.442;2023-04-08T03:28:04;102410.56;;;6.74;99.57
71966;BME280;59836;52.132;5.442;2023-04-08T03:30:30;102412.00;;;6.70;99.42
71966;BME280;59836;52.132;5.442;2023-04-08T03:32:57;102405.16;;;6.67;99.06
71966;BME280;59836;52.132;5.442;2023-04-08T03:35:23;102408.50;;;6.69;99.28
71966;BME280;59836;52.132;5.442;2023-04-08T03:37:50;102412.22;;;6.68;99.06
71966;BME280;59836;52.132;5.442;2023-04-08T03:40:16;102411.59;;;6.66;99.23
71966;BME280;59836;52.132;5.442;2023-04-08T03:42:43;102411.78;;;6.64;99.36
71966;BME280;59836;52.132;5.442;2023-04-08T03:45:10;102413.84;;;6.62;99.27
71966;BME280;59836;52.132;5.442;2023-04-08T03:47:36;102412.19;;;6.61;98.87
71966;BME280;59836;52.132;5.442;2023-04-08T03:50:03;102415.09;;;6.60;99.23
71966;BME280;59836;52.132;5.442;2023-04-08T03:52:29;102408.06;;;6.59;99.34
71966;BME280;59836;52.132;5.442;2023-04-08T03:54:56;102414.25;;;6.59;99.13
71966;BME280;59836;52.132;5.442;2023-04-08T03:57:22;102411.78;;;6.58;99.19
71966;BME280;59836;52.132;5.442;2023-04-08T03:59:49;102422.97;;;6.55;99.69
71966;BME280;59836;52.132;5.442;2023-04-08T04:02:15;102427.50;;;6.54;99.10
71966;BME280;59836;52.132;5.442;2023-04-08T04:04:42;102431.47;;;6.52;99.08
71966;BME280;59836;52.132;5.442;2023-04-08T04:07:08;102436.84;;;6.52;99.20
71966;BME280;59836;52.132;5.442;2023-04-08T04:09:34;102434.56;;;6.48;98.90
71966;BME280;59836;52.132;5.442;2023-04-08T04:12:01;102440.75;;;6.42;98.79
71966;BME280;59836;52.132;5.442;2023-04-08T04:14:27;102439.09;;;6.34;98.78
71966;BME280;59836;52.132;5.442;2023-04-08T04:16:54;102441.34;;;6.31;98.47
71966;BME280;59836;52.132;5.442;2023-04-08T04:19:21;102450.63;;;6.22;98.04
71966;BME280;59836;52.132;5.442;2023-04-08T04:21:47;102449.75;;;6.14;98.23
71966;BME280;59836;52.132;5.442;2023-04-08T04:24:14;102447.47;;;6.11;98.28
71966;BME280;59836;52.132;5.442;2023-04-08T04:26:40;102456.34;;;6.05;97.69
71966;BME280;59836;52.132;5.442;2023-04-08T04:29:07;102463.16;;;6.01;97.56
71966;BME280;59836;52.132;5.442;2023-04-08T04:31:33;102463.72;;;5.96;97.35
71966;BME280;59836;52.132;5.442;2023-04-08T04:34:00;102468.03;;;5.90;97.19
71966;BME280;59836;52.132;5.442;2023-04-08T04:36:26;102464.28;;;5.85;97.16
71966;BME280;59836;52.132;5.442;2023-04-08T04:38:53;102467.78;;;5.85;97.66
71966;BME280;59836;52.132;5.442;2023-04-08T04:41:20;102472.13;;;5.86;97.54
71966;BME280;59836;52.132;5.442;2023-04-08T04:43:46;102477.09;;;5.83;97.38
71966;BME280;59836;52.132;5.442;2023-04-08T04:46:13;102476.47;;;5.81;97.88
71966;BME280;59836;52.132;5.442;2023-04-08T04:48:40;102484.75;;;5.79;97.39
71966;BME280;59836;52.132;5.442;2023-04-08T04:51:06;102484.31;;;5.75;97.42
71966;BME280;59836;52.132;5.442;2023-04-08T04:53:33;102483.88;;;5.72;97.54
71966;BME280;59836;52.132;5.442;2023-04-08T04:55:59;102489.66;;;5.69;97.42
71966;BME280;59836;52.132;5.442;2023-04-08T04:58:29;102497.09;;;5.67;97.35
71966;BME280;59836;52.132;5.442;2023-04-08T05:00:56;102501.84;;;5.65;97.19
71966;BME280;59836;52.132;5.442;2023-04-08T05:03:22;102493.75;;;5.65;97.29
71966;BME280;59836;52.132;5.442;2023-04-08T05:05:50;102498.28;;;5.64;97.40
71966;BME280;59836;52.132;5.442;2023-04-08T05:08:17;102498.03;;;5.59;96.94
71966;BME280;59836;52.132;5.442;2023-04-08T05:10:44;102498.25;;;5.57;96.99
71966;BME280;59836;52.132;5.442;2023-04-08T05:13:11;102503.19;;;5.54;97.02
71966;BME280;59836;52.132;5.442;2023-04-08T05:15:37;102506.91;;;5.53;96.67
71966;BME280;59836;52.132;5.442;2023-04-08T05:18:04;102507.50;;;5.48;96.28
71966;BME280;59836;52.132;5.442;2023-04-08T05:20:30;102516.34;;;5.42;96.51
71966;BME280;59836;52.132;5.442;2023-04-08T05:22:57;102512.38;;;5.38;96.19
71966;BME280;59836;52.132;5.442;2023-04-08T05:25:24;102519.16;;;5.34;96.34
71966;BME280;59836;52.132;5.442;2023-04-08T05:27:50;102526.59;;;5.31;95.85
71966;BME280;59836;52.132;5.442;2023-04-08T05:30:18;102526.34;;;5.26;95.82
71966;BME280;59836;52.132;5.442;2023-04-08T05:32:44;102520.69;;;5.21;95.84
71966;BME280;59836;52.132;5.442;2023-04-08T05:35:11;102522.09;;;5.17;96.22
71966;BME280;59836;52.132;5.442;2023-04-08T05:37:37;102517.09;;;5.14;95.71
71966;BME280;59836;52.132;5.442;2023-04-08T05:40:04;102522.69;;;5.12;95.87
71966;BME280;59836;52.132;5.442;2023-04-08T05:42:31;102516.84;;;5.09;95.83
71966;BME280;59836;52.132;5.442;2023-04-08T05:44:57;102530.13;;;5.10;95.38
71966;BME280;59836;52.132;5.442;2023-04-08T05:47:24;102533.63;;;5.11;95.50
71966;BME280;59836;52.132;5.442;2023-04-08T05:49:51;102526.78;;;5.08;95.04
71966;BME280;59836;52.132;5.442;2023-04-08T05:52:17;102535.03;;;5.07;95.22
71966;BME280;59836;52.132;5.442;2023-04-08T05:54:44;102535.66;;;5.09;95.27
71966;BME280;59836;52.132;5.442;2023-04-08T05:57:11;102541.03;;;5.09;94.81
71966;BME280;59836;52.132;5.442;2023-04-08T05:59:37;102535.66;;;5.09;94.95
71966;BME280;59836;52.132;5.442;2023-04-08T06:02:03;102543.34;;;5.12;94.51
71966;BME280;59836;52.132;5.442;2023-04-08T06:04:30;102540.50;;;5.13;94.51
71966;BME280;59836;52.132;5.442;2023-04-08T06:06:57;102539.00;;;5.11;94.01
71966;BME280;59836;52.132;5.442;2023-04-08T06:09:28;102535.13;;;5.13;94.00
71966;BME280;59836;52.132;5.442;2023-04-08T06:11:54;102539.25;;;5.16;94.25
71966;BME280;59836;52.132;5.442;2023-04-08T06:14:22;102539.25;;;5.16;93.97
71966;BME280;59836;52.132;5.442;2023-04-08T06:16:49;102539.09;;;5.17;93.83
71966;BME280;59836;52.132;5.442;2023-04-08T06:19:15;102542.41;;;5.20;93.69
71966;BME280;59836;52.132;5.442;2023-04-08T06:21:42;102535.16;;;5.20;93.50
71966;BME280;59836;52.132;5.442;2023-04-08T06:24:08;102545.75;;;5.22;93.45
71966;BME280;59836;52.132;5.442;2023-04-08T06:26:34;102541.19;;;5.22;92.59
71966;BME280;59836;52.132;5.442;2023-04-08T06:29:01;102554.47;;;5.24;92.63
71966;BME280;59836;52.132;5.442;2023-04-08T06:31:28;102567.53;;;5.27;92.23
71966;BME280;59836;52.132;5.442;2023-04-08T06:33:54;102572.72;;;5.28;92.15
71966;BME280;59836;52.132;5.442;2023-04-08T06:36:21;102570.00;;;5.28;91.72
71966;BME280;59836;52.132;5.442;2023-04-08T06:38:47;102579.56;;;5.31;92.30
71966;BME280;59836;52.132;5.442;2023-04-08T06:41:14;102583.53;;;5.35;91.13
71966;BME280;59836;52.132;5.442;2023-04-08T06:43:41;102593.72;;;5.40;91.76
71966;BME280;59836;52.132;5.442;2023-04-08T06:46:07;102585.44;;;5.41;91.36
71966;BME280;59836;52.132;5.442;2023-04-08T06:48:34;102589.16;;;5.40;90.72
71966;BME280;59836;52.132;5.442;2023-04-08T06:51:02;102595.00;;;5.44;91.11
71966;BME280;59836;52.132;5.442;2023-04-08T06:53:29;102592.59;;;5.49;91.00
71966;BME280;59836;52.132;5.442;2023-04-08T06:55:56;102586.81;;;5.52;90.58
71966;BME280;59836;52.132;5.442;2023-04-08T06:58:22;102597.59;;;5.52;90.47
71966;BME280;59836;52.132;5.442;2023-04-08T07:00:49;102592.63;;;5.56;90.51
71966;BME280;59836;52.132;5.442;2023-04-08T07:03:16;102591.22;;;5.60;90.65
71966;BME280;59836;52.132;5.442;2023-04-08T07:05:42;102600.19;;;5.67;90.04
71966;BME280;59836;52.132;5.442;2023-04-08T07:08:09;102603.75;;;5.68;89.80
71966;BME280;59836;52.132;5.442;2023-04-08T07:10:36;102606.47;;;5.53;90.39
71966;BME280;59836;52.132;5.442;2023-04-08T07:13:03;102612.19;;;5.65;90.38
71966;BME280;59836;52.132;5.442;2023-04-08T07:15:29;102615.78;;;5.72;89.87
71966;BME280;59836;52.132;5.442;2023-04-08T07:17:56;102611.94;;;5.81;90.45
71966;BME280;59836;52.132;5.442;2023-04-08T07:20:24;102616.72;;;5.86;89.95
71966;BME280;59836;52.132;5.442;2023-04-08T07:22:51;102617.63;;;5.93;89.63
71966;BME280;59836;52.132;5.442;2023-04-08T07:25:17;102631.78;;;6.02;88.72
71966;BME280;59836;52.132;5.442;2023-04-08T07:27:44;102629.19;;;6.09;88.38
71966;BME280;59836;52.132;5.442;2023-04-08T07:30:11;102629.84;;;6.17;87.78
71966;BME280;59836;52.132;5.442;2023-04-08T07:32:37;102638.03;;;6.31;87.25
71966;BME280;59836;52.132;5.442;2023-04-08T07:35:04;102632.69;;;6.38;86.63
71966;BME280;59836;52.132;5.442;2023-04-08T07:37:34;102639.41;;;6.48;86.62
71966;BME280;59836;52.132;5.442;2023-04-08T07:40:00;102636.56;;;6.57;86.23
71966;BME280;59836;52.132;5.442;2023-04-08T07:42:27;102637.03;;;6.67;86.19
71966;BME280;59836;52.132;5.442;2023-04-08T07:44:54;102637.13;;;6.81;86.13
71966;BME280;59836;52.132;5.442;2023-04-08T07:47:20;102631.94;;;6.86;86.06
71966;BME280;59836;52.132;5.442;2023-04-08T07:49:47;102632.84;;;7.00;85.31
71966;BME280;59836;52.132;5.442;2023-04-08T07:52:13;102636.00;;;7.10;85.33
71966;BME280;59836;52.132;5.442;2023-04-08T07:54:40;102644.72;;;7.19;84.51
71966;BME280;59836;52.132;5.442;2023-04-08T07:57:07;102637.50;;;7.26;83.49
71966;BME280;59836;52.132;5.442;2023-04-08T07:59:33;102635.66;;;7.33;83.60
71966;BME280;59836;52.132;5.442;2023-04-08T08:02:01;102635.25;;;7.43;83.24
71966;BME280;59836;52.132;5.442;2023-04-08T08:04:28;102629.25;;;7.54;83.13
71966;BME280;59836;52.132;5.442;2023-04-08T08:06:55;102644.25;;;7.71;82.48
71966;BME280;59836;52.132;5.442;2023-04-08T08:09:21;102645.72;;;7.80;82.41
71966;BME280;59836;52.132;5.442;2023-04-08T08:11:48;102651.53;;;7.90;81.43
71966;BME280;59836;52.132;5.442;2023-04-08T08:14:14;102638.22;;;8.09;82.65
71966;BME280;59836;52.132;5.442;2023-04-08T08:16:41;102634.69;;;8.22;81.71
71966;BME280;59836;52.132;5.442;2023-04-08T08:19:07;102640.91;;;8.36;81.41
71966;BME280;59836;52.132;5.442;2023-04-08T08:21:37;102637.81;;;8.52;80.37
71966;BME280;59836;52.132;5.442;2023-04-08T08:24:05;102636.31;;;8.70;80.89
71966;BME280;59836;52.132;5.442;2023-04-08T08:26:34;102636.91;;;8.79;79.00
71966;BME280;59836;52.132;5.442;2023-04-08T08:29:04;102645.81;;;8.86;79.12
71966;BME280;59836;52.132;5.442;2023-04-08T08:31:33;102646.44;;;8.95;78.93
71966;BME280;59836;52.132;5.442;2023-04-08T08:34:00;102637.63;;;9.06;79.37
71966;BME280;59836;52.132;5.442;2023-04-08T08:36:27;102643.41;;;9.16;78.62
71966;BME280;59836;52.132;5.442;2023-04-08T08:38:53;102641.69;;;9.29;78.45
71966;BME280;59836;52.132;5.442;2023-04-08T08:41:20;102650.78;;;9.41;78.60
71966;BME280;59836;52.132;5.442;2023-04-08T08:43:47;102639.88;;;9.55;77.72
71966;BME280;59836;52.132;5.442;2023-04-08T08:46:16;102647.34;;;9.59;76.96
71966;BME280;59836;52.132;5.442;2023-04-08T08:48:43;102645.81;;;9.70;76.07
71966;BME280;59836;52.132;5.442;2023-04-08T08:51:10;102645.94;;;9.82;76.57
71966;BME280;59836;52.132;5.442;2023-04-08T08:53:37;102655.25;;;9.93;76.08
71966;BME280;59836;52.132;5.442;2023-04-08T08:56:04;102655.44;;;9.98;75.35
71966;BME280;59836;52.132;5.442;2023-04-08T08:58:44;102659.13;;;10.04;75.12
71966;BME280;59836;52.132;5.442;2023-04-08T09:06:37;102657.88;;;10.25;73.74
71966;BME280;59836;52.132;5.442;2023-04-08T09:09:04;102657.00;;;10.31;74.00
71966;BME280;59836;52.132;5.442;2023-04-08T09:11:38;102660.75;;;10.30;74.52
71966;BME280;59836;52.132;5.442;2023-04-08T09:14:24;102666.69;;;10.46;75.16
71966;BME280;59836;52.132;5.442;2023-04-08T09:16:51;102664.16;;;10.51;74.69
71966;BME280;59836;52.132;5.442;2023-04-08T09:19:18;102666.13;;;10.62;74.10
71966;BME280;59836;52.132;5.442;2023-04-08T09:21:44;102671.47;;;10.69;73.27
71966;BME280;59836;52.132;5.442;2023-04-08T09:24:27;102671.78;;;10.80;74.26
71966;BME280;59836;52.132;5.442;2023-04-08T09:26:54;102664.19;;;10.88;73.70
71966;BME280;59836;52.132;5.442;2023-04-08T09:29:25;102668.91;;;10.93;74.00
71966;BME280;59836;52.132;5.442;2023-04-08T09:31:58;102668.25;;;10.98;72.44
71966;BME280;59836;52.132;5.442;2023-04-08T09:34:27;102677.44;;;10.97;72.52
71966;BME280;59836;52.132;5.442;2023-04-08T09:36:54;102677.81;;;11.00;71.64
71966;BME280;59836;52.132;5.442;2023-04-08T09:39:21;102673.59;;;11.04;71.04
71966;BME280;59836;52.132;5.442;2023-04-08T09:41:49;102679.41;;;11.08;71.80
71966;BME280;59836;52.132;5.442;2023-04-08T09:44:17;102680.13;;;11.15;71.67
71966;BME280;59836;52.132;5.442;2023-04-08T09:47:00;102669.06;;;11.17;70.54
71966;BME280;59836;52.132;5.442;2023-04-08T09:49:37;102675.00;;;11.26;70.48
71966;BME280;59836;52.132;5.442;2023-04-08T09:52:08;102678.00;;;11.36;69.01
71966;BME280;59836;52.132;5.442;2023-04-08T09:54:58;102670.91;;;11.35;69.97
71966;BME280;59836;52.132;5.442;2023-04-08T09:57:30;102674.97;;;11.44;69.26
71966;BME280;59836;52.132;5.442;2023-04-08T10:00:16;102674.50;;;11.47;69.05
71966;BME280;59836;52.132;5.442;2023-04-08T10:02:55;102674.41;;;11.54;69.27
71966;BME280;59836;52.132;5.442;2023-04-08T10:05:26;102671.25;;;11.57;67.79
71966;BME280;59836;52.132;5.442;2023-04-08T10:07:55;102661.91;;;11.65;68.88
71966;BME280;59836;52.132;5.442;2023-04-08T10:10:22;102666.44;;;11.71;68.52
71966;BME280;59836;52.132;5.442;2023-04-08T10:12:49;102661.72;;;11.78;67.92
71966;BME280;59836;52.132;5.442;2023-04-08T10:15:26;102655.81;;;11.81;67.31
71966;BME280;59836;52.132;5.442;2023-04-08T10:17:55;102662.06;;;11.82;66.23
71966;BME280;59836;52.132;5.442;2023-04-08T10:23:08;102658.03;;;12.03;68.07
71966;BME280;59836;52.132;5.442;2023-04-08T10:25:42;102645.13;;;12.10;66.01
71966;BME280;59836;52.132;5.442;2023-04-08T10:33:10;102645.97;;;12.35;65.10
71966;BME280;59836;52.132;5.442;2023-04-08T10:35:46;102659.66;;;12.28;65.74
71966;BME280;59836;52.132;5.442;2023-04-08T10:38:15;102658.72;;;12.34;65.62
71966;BME280;59836;52.132;5.442;2023-04-08T10:40:43;102659.91;;;12.38;64.38
71966;BME280;59836;52.132;5.442;2023-04-08T10:43:11;102656.13;;;12.39;62.55
71966;BME280;59836;52.132;5.442;2023-04-08T10:45:39;102660.16;;;12.49;63.82
71966;BME280;59836;52.132;5.442;2023-04-08T10:48:20;102645.38;;;12.57;64.23
71966;BME280;59836;52.132;5.442;2023-04-08T10:51:03;102652.47;;;12.58;63.69
71966;BME280;59836;52.132;5.442;2023-04-08T10:53:33;102653.28;;;12.58;62.87
71966;BME280;59836;52.132;5.442;2023-04-08T10:56:10;102653.16;;;12.65;62.29
71966;BME280;59836;52.132;5.442;2023-04-08T10:58:52;102644.75;;;12.66;64.03
71966;BME280;59836;52.132;5.442;2023-04-08T11:01:19;102644.97;;;12.77;64.55
71966;BME280;59836;52.132;5.442;2023-04-08T11:03:46;102653.59;;;12.85;64.08
71966;BME280;59836;52.132;5.442;2023-04-08T11:06:13;102637.94;;;12.93;63.20
71966;BME280;59836;52.132;5.442;2023-04-08T11:08:40;102637.56;;;13.01;63.25
71966;BME280;59836;52.132;5.442;2023-04-08T11:11:07;102644.53;;;13.09;62.45
71966;BME280;59836;52.132;5.442;2023-04-08T11:13:41;102638.22;;;13.20;62.71
71966;BME280;59836;52.132;5.442;2023-04-08T11:16:19;102637.22;;;13.26;62.75
71966;BME280;59836;52.132;5.442;2023-04-08T11:18:46;102640.03;;;13.32;60.67
71966;BME280;59836;52.132;5.442;2023-04-08T11:21:14;102641.84;;;13.26;60.57
71966;BME280;59836;52.132;5.442;2023-04-08T11:23:41;102644.97;;;13.18;57.91
71966;BME280;59836;52.132;5.442;2023-04-08T11:26:09;102637.34;;;13.03;57.61
71966;BME280;59836;52.132;5.442;2023-04-08T11:28:36;102639.94;;;12.97;56.79
71966;BME280;59836;52.132;5.442;2023-04-08T11:31:02;102629.44;;;12.89;56.98
71966;BME280;59836;52.132;5.442;2023-04-08T11:33:30;102636.53;;;12.90;57.25
71966;BME280;59836;52.132;5.442;2023-04-08T11:36:00;102634.78;;;12.84;54.87
71966;BME280;59836;52.132;5.442;2023-04-08T11:38:27;102639.84;;;12.80;55.48
71966;BME280;59836;52.132;5.442;2023-04-08T11:40:56;102642.94;;;12.84;55.43
71966;BME280;59836;52.132;5.442;2023-04-08T11:43:24;102644.00;;;12.83;55.91
71966;BME280;59836;52.132;5.442;2023-04-08T11:45:51;102645.19;;;12.87;55.40
71966;BME280;59836;52.132;5.442;2023-04-08T11:48:18;102640.31;;;12.89;52.98
71966;BME280;59836;52.132;5.442;2023-04-08T11:50:44;102642.47;;;12.87;53.85
71966;BME280;59836;52.132;5.442;2023-04-08T11:53:23;102645.88;;;12.94;54.83
71966;BME280;59836;52.132;5.442;2023-04-08T11:55:50;102637.53;;;13.13;54.81
71966;BME280;59836;52.132;5.442;2023-04-08T11:58:17;102639.88;;;13.21;52.61
71966;BME280;59836;52.132;5.442;2023-04-08T12:00:43;102639.38;;;13.24;52.37
71966;BME280;59836;52.132;5.442;2023-04-08T12:03:11;102642.75;;;13.43;52.44
71966;BME280;59836;52.132;5.442;2023-04-08T12:05:38;102641.78;;;13.38;50.77
71966;BME280;59836;52.132;5.442;2023-04-08T12:08:05;102640.03;;;13.43;51.78
71966;BME280;59836;52.132;5.442;2023-04-08T12:10:32;102636.34;;;13.50;51.88
71966;BME280;59836;52.132;5.442;2023-04-08T12:12:58;102634.50;;;13.55;51.40
71966;BME280;59836;52.132;5.442;2023-04-08T12:15:25;102639.66;;;13.69;51.67
71966;BME280;59836;52.132;5.442;2023-04-08T12:17:51;102633.53;;;13.79;50.17
71966;BME280;59836;52.132;5.442;2023-04-08T12:20:18;102635.94;;;13.75;50.65
71966;BME280;59836;52.132;5.442;2023-04-08T12:22:44;102641.88;;;13.72;51.71
71966;BME280;59836;52.132;5.442;2023-04-08T12:25:12;102637.69;;;13.64;51.64
71966;BME280;59836;52.132;5.442;2023-04-08T12:27:38;102639.34;;;13.65;50.47
71966;BME280;59836;52.132;5.442;2023-04-08T12:30:05;102643.44;;;13.68;48.27
71966;BME280;59836;52.132;5.442;2023-04-08T12:32:31;102639.72;;;13.57;46.59
71966;BME280;59836;52.132;5.442;2023-04-08T12:34:58;102636.56;;;13.48;46.44
71966;BME280;59836;52.132;5.442;2023-04-08T12:37:25;102632.19;;;13.47;47.34
71966;BME280;59836;52.132;5.442;2023-04-08T12:39:52;102634.09;;;13.47;48.04
71966;BME280;59836;52.132;5.442;2023-04-08T12:42:18;102636.25;;;13.45;47.67
71966;BME280;59836;52.132;5.442;2023-04-08T12:44:45;102635.75;;;13.36;48.17
71966;BME280;59836;52.132;5.442;2023-04-08T12:47:11;102635.06;;;13.28;48.24
71966;BME280;59836;52.132;5.442;2023-04-08T12:49:38;102632.63;;;13.27;48.14
71966;BME280;59836;52.132;5.442;2023-04-08T12:52:07;102634.16;;;13.23;50.58
71966;BME280;59836;52.132;5.442;2023-04-08T12:54:34;102631.69;;;13.21;49.75
71966;BME280;59836;52.132;5.442;2023-04-08T12:57:00;102628.97;;;13.21;50.63
71966;BME280;59836;52.132;5.442;2023-04-08T12:59:27;102634.44;;;13.21;51.26
71966;BME280;59836;52.132;5.442;2023-04-08T13:01:54;102628.97;;;13.21;51.08
71966;BME280;59836;52.132;5.442;2023-04-08T13:04:21;102635.00;;;13.23;50.88
71966;BME280;59836;52.132;5.442;2023-04-08T13:06:47;102636.59;;;13.36;51.39
71966;BME280;59836;52.132;5.442;2023-04-08T13:09:14;102641.69;;;13.45;50.97
71966;BME280;59836;52.132;5.442;2023-04-08T13:11:40;102636.66;;;13.53;51.50
71966;BME280;59836;52.132;5.442;2023-04-08T13:14:07;102636.91;;;13.52;52.90
71966;BME280;59836;52.132;5.442;2023-04-08T13:16:33;102638.22;;;13.49;51.86